createdAt,value
2019-04-25T00:02:13.140Z,15.17
2019-04-25T00:04:43.479Z,15.09
2019-04-25T00:07:13.030Z,15.00
2019-04-25T00:09:51.901Z,14.92
2019-04-25T00:12:22.327Z,14.86
2019-04-25T00:14:53.772Z,14.80
2019-04-25T00:17:23.997Z,14.75
2019-04-25T00:19:53.635Z,14.77
2019-04-25T00:22:53.255Z,14.85
2019-04-25T00:25:45.124Z,14.93
2019-04-25T00:28:11.897Z,14.98
2019-04-25T00:30:43.443Z,15.00
2019-04-25T00:33:12.733Z,14.96
2019-04-25T00:35:44.438Z,14.98
2019-04-25T00:38:14.681Z,15.05
2019-04-25T00:40:44.725Z,15.04
2019-04-25T00:43:14.399Z,15.18
2019-04-25T00:45:44.565Z,15.45
2019-04-25T00:48:15.056Z,15.57
2019-04-25T00:50:44.645Z,15.65
2019-04-25T00:53:14.167Z,15.76
2019-04-25T00:55:44.326Z,15.79
2019-04-25T00:58:26.432Z,15.68
2019-04-25T01:01:03.848Z,15.65
2019-04-25T01:03:33.789Z,15.52
2019-04-25T01:06:03.953Z,15.74
2019-04-25T01:08:33.458Z,15.70
2019-04-25T01:11:02.995Z,15.63
2019-04-25T01:13:32.490Z,15.49
2019-04-25T01:16:04.018Z,15.53
2019-04-25T01:18:33.698Z,15.49
2019-04-25T01:21:04.456Z,15.35
2019-04-25T01:23:34.062Z,15.23
2019-04-25T01:26:03.564Z,15.11
2019-04-25T01:28:33.602Z,15.16
2019-04-25T01:31:05.782Z,15.14
2019-04-25T01:33:35.298Z,15.14
2019-04-25T01:36:13.342Z,15.12
2019-04-25T01:38:58.751Z,15.00
2019-04-25T01:41:45.679Z,14.82
2019-04-25T01:44:37.243Z,14.53
2019-04-25T01:47:06.845Z,14.27
2019-04-25T01:49:36.350Z,14.26
2019-04-25T01:52:05.937Z,14.26
2019-04-25T01:54:35.434Z,14.33
2019-04-25T01:57:05.529Z,14.45
2019-04-25T01:59:35.108Z,14.71
2019-04-25T02:02:06.824Z,14.77
2019-04-25T02:04:37.625Z,14.86
2019-04-25T02:07:07.144Z,14.95
2019-04-25T02:09:36.716Z,15.01
2019-04-25T02:12:15.526Z,15.13
2019-04-25T02:14:45.178Z,15.25
2019-04-25T02:17:15.271Z,15.29
2019-04-25T02:19:44.784Z,15.19
2019-04-25T02:22:14.609Z,15.10
2019-04-25T02:24:44.152Z,15.09
2019-04-25T02:27:13.719Z,14.98
2019-04-25T02:29:44.698Z,14.89
2019-04-25T02:32:15.315Z,14.76
2019-04-25T02:34:45.697Z,14.51
2019-04-25T02:37:16.287Z,14.55
2019-04-25T02:39:45.797Z,14.64
2019-04-25T02:42:16.788Z,14.76
2019-04-25T02:44:56.160Z,14.81
2019-04-25T02:47:34.246Z,14.88
2019-04-25T02:50:28.134Z,14.96
2019-04-25T02:53:09.460Z,15.00
2019-04-25T02:55:38.980Z,14.99
2019-04-25T02:58:10.197Z,14.63
2019-04-25T03:00:56.550Z,14.14
2019-04-25T03:03:11.247Z,13.83
2019-04-25T03:05:40.768Z,13.67
2019-04-25T03:08:10.673Z,13.40
2019-04-25T03:10:40.161Z,13.24
2019-04-25T03:13:11.861Z,13.27
2019-04-25T03:15:40.901Z,13.23
2019-04-25T03:18:12.419Z,13.24
2019-04-25T03:20:48.487Z,13.22
2019-04-25T03:23:37.142Z,13.19
2019-04-25T03:26:07.514Z,13.18
2019-04-25T03:28:37.209Z,13.25
2019-04-25T03:31:13.377Z,13.22
2019-04-25T03:33:38.565Z,13.25
2019-04-25T03:36:09.224Z,13.24
2019-04-25T03:38:38.820Z,13.34
2019-04-25T03:41:08.691Z,13.38
2019-04-25T03:43:38.199Z,13.43
2019-04-25T03:46:08.263Z,13.56
2019-04-25T03:48:37.859Z,13.76
2019-04-25T03:51:08.021Z,13.93
2019-04-25T03:53:38.518Z,14.13
2019-04-25T03:56:08.674Z,14.31
2019-04-25T03:58:38.413Z,14.06
2019-04-25T04:01:09.278Z,14.08
2019-04-25T04:03:40.002Z,14.09
2019-04-25T04:06:09.884Z,13.94
2019-04-25T04:08:40.364Z,14.00
2019-04-25T04:11:10.116Z,13.88
2019-04-25T04:13:39.764Z,13.81
2019-04-25T04:16:09.289Z,13.92
2019-04-25T04:18:44.169Z,13.90
2019-04-25T04:21:30.612Z,13.99
2019-04-25T04:24:09.649Z,14.12
2019-04-25T04:26:39.172Z,14.23
2019-04-25T04:29:08.693Z,14.27
2019-04-25T04:31:38.192Z,14.36
2019-04-25T04:34:08.672Z,14.47
2019-04-25T04:36:38.187Z,14.34
2019-04-25T04:39:09.048Z,14.23
2019-04-25T04:41:39.187Z,14.13
2019-04-25T04:44:08.721Z,14.04
2019-04-25T04:46:38.266Z,14.00
2019-04-25T04:49:08.692Z,13.90
2019-04-25T04:51:39.213Z,14.05
2019-04-25T04:54:09.474Z,14.25
2019-04-25T04:56:39.046Z,14.40
2019-04-25T04:59:08.569Z,14.35
2019-04-25T05:01:56.258Z,14.39
2019-04-25T05:04:30.608Z,14.57
2019-04-25T05:07:18.253Z,14.65
2019-04-25T05:09:47.828Z,14.74
2019-04-25T05:12:17.510Z,15.01
2019-04-25T05:14:47.111Z,15.15
2019-04-25T05:17:17.471Z,15.34
2019-04-25T05:19:47.106Z,15.47
2019-04-25T05:22:16.892Z,15.40
2019-04-25T05:24:46.545Z,15.28
2019-04-25T05:27:30.585Z,15.42
2019-04-25T05:29:47.370Z,15.48
2019-04-25T05:32:17.304Z,15.73
2019-04-25T05:34:49.335Z,15.62
2019-04-25T05:37:19.662Z,15.56
2019-04-25T05:39:49.380Z,15.71
2019-04-25T05:42:25.729Z,16.01
2019-04-25T05:44:58.101Z,16.02
2019-04-25T05:47:27.750Z,16.20
2019-04-25T05:49:57.258Z,16.23
2019-04-25T05:52:26.792Z,16.41
2019-04-25T05:54:56.332Z,16.62
2019-04-25T05:57:26.084Z,16.39
2019-04-25T05:59:55.636Z,16.39
2019-04-25T06:02:25.669Z,16.39
2019-04-25T06:04:56.060Z,16.39
2019-04-25T06:07:26.686Z,16.87
2019-04-25T06:10:10.589Z,16.94
2019-04-25T06:12:48.103Z,17.05
2019-04-25T06:15:19.981Z,17.24
2019-04-25T06:18:07.529Z,17.25
2019-04-25T06:20:37.455Z,17.43
2019-04-25T06:23:24.579Z,17.54
2019-04-25T06:25:54.766Z,17.90
2019-04-25T06:28:26.233Z,17.89
2019-04-25T06:30:56.880Z,18.09
2019-04-25T06:33:27.097Z,18.48
2019-04-25T06:35:56.951Z,18.62
2019-04-25T06:38:27.521Z,18.35
2019-04-25T06:40:57.990Z,18.11
2019-04-25T06:43:28.009Z,18.03
2019-04-25T06:46:31.788Z,18.22
2019-04-25T06:49:13.396Z,18.32
2019-04-25T06:51:51.284Z,18.27
2019-04-25T06:54:21.940Z,18.24
2019-04-25T06:56:53.561Z,18.08
2019-04-25T06:59:25.921Z,18.11
2019-04-25T07:01:56.523Z,17.97
2019-04-25T07:04:27.008Z,18.04
2019-04-25T07:07:09.354Z,17.97
2019-04-25T07:09:29.655Z,17.84
2019-04-25T07:11:59.854Z,17.82
2019-04-25T07:14:29.583Z,17.76
2019-04-25T07:16:59.163Z,17.84
2019-04-25T07:19:28.671Z,18.04
2019-04-25T07:21:58.190Z,18.09
2019-04-25T07:24:27.696Z,18.00
2019-04-25T07:27:15.245Z,17.95
2019-04-25T07:30:04.066Z,17.77
2019-04-25T07:32:42.107Z,17.91
2019-04-25T07:35:13.502Z,17.89
2019-04-25T07:37:44.120Z,17.86
2019-04-25T07:40:14.252Z,18.12
2019-04-25T07:42:43.982Z,18.26
2019-04-25T07:45:14.213Z,18.26
2019-04-25T07:47:44.196Z,18.20
2019-04-25T07:50:15.374Z,18.27
2019-04-25T07:52:44.909Z,18.38
2019-04-25T07:55:14.610Z,18.62
2019-04-25T07:57:44.378Z,18.74
2019-04-25T08:00:15.347Z,18.92
2019-04-25T08:02:45.916Z,19.00
2019-04-25T08:05:16.796Z,19.05
2019-04-25T08:07:46.301Z,19.03
2019-04-25T08:10:17.099Z,19.25
2019-04-25T08:12:47.471Z,19.41
2019-04-25T08:15:36.345Z,19.36
2019-04-25T08:18:09.407Z,19.45
2019-04-25T08:20:40.074Z,19.58
2019-04-25T08:23:10.829Z,19.40
2019-04-25T08:25:40.657Z,19.56
2019-04-25T08:28:10.303Z,19.64
2019-04-25T08:30:39.831Z,19.64
2019-04-25T08:33:09.327Z,19.65
2019-04-25T08:35:38.954Z,19.47
2019-04-25T08:38:08.470Z,19.51
2019-04-25T08:40:38.995Z,19.61
2019-04-25T08:43:08.610Z,19.86
2019-04-25T08:45:38.473Z,19.77
2019-04-25T08:48:08.019Z,19.88
2019-04-25T08:50:46.356Z,19.78
2019-04-25T08:53:15.947Z,19.66
2019-04-25T08:56:03.808Z,19.52
2019-04-25T08:59:03.658Z,19.69
2019-04-25T09:02:03.915Z,19.62
2019-04-25T09:04:40.109Z,19.60
2019-04-25T09:07:09.942Z,19.64
2019-04-25T09:09:39.450Z,20.05
2019-04-25T09:12:09.013Z,20.37
2019-04-25T09:14:39.027Z,20.34
2019-04-25T09:17:08.658Z,20.09
2019-04-25T09:19:38.483Z,20.33
2019-04-25T09:22:08.134Z,20.57
2019-04-25T09:24:38.755Z,20.97
2019-04-25T09:27:09.688Z,21.06
2019-04-25T09:29:39.200Z,21.06
2019-04-25T09:32:08.807Z,21.37
2019-04-25T09:34:38.324Z,21.39
2019-04-25T09:37:07.935Z,21.36
2019-04-25T09:40:05.838Z,21.53
2019-04-25T09:42:35.740Z,21.62
2019-04-25T09:45:26.435Z,21.54
2019-04-25T09:47:58.912Z,21.55
2019-04-25T09:50:38.198Z,21.48
2019-04-25T09:53:20.787Z,21.96
2019-04-25T09:55:49.201Z,22.11
2019-04-25T09:58:25.752Z,21.93
2019-04-25T10:00:59.592Z,21.91
2019-04-25T10:03:29.110Z,21.84
2019-04-25T10:05:58.640Z,21.84
2019-04-25T10:08:28.245Z,22.01
2019-04-25T10:10:57.860Z,21.88
2019-04-25T10:13:27.462Z,21.81
2019-04-25T10:16:08.513Z,21.90
2019-04-25T10:18:39.259Z,21.98
2019-04-25T10:21:11.135Z,22.01
2019-04-25T10:23:42.101Z,22.04
2019-04-25T10:26:13.096Z,21.99
2019-04-25T10:28:44.039Z,21.94
2019-04-25T10:31:14.320Z,21.99
2019-04-25T10:33:45.811Z,22.18
2019-04-25T10:36:15.088Z,22.11
2019-04-25T10:39:00.147Z,22.17
2019-04-25T10:41:16.261Z,22.06
2019-04-25T10:43:48.250Z,22.15
2019-04-25T10:46:18.221Z,22.03
2019-04-25T10:48:48.042Z,22.19
2019-04-25T10:51:17.557Z,22.29
2019-04-25T10:53:47.113Z,22.52
2019-04-25T10:56:16.632Z,22.43
2019-04-25T10:58:46.731Z,22.45
2019-04-25T11:01:17.298Z,22.47
2019-04-25T11:03:56.115Z,22.58
2019-04-25T11:06:28.678Z,22.70
2019-04-25T11:08:58.202Z,22.74
2019-04-25T11:11:28.012Z,22.86
2019-04-25T11:13:58.723Z,23.05
2019-04-25T11:16:28.320Z,23.12
2019-04-25T11:18:57.867Z,22.77
2019-04-25T11:21:27.461Z,22.93
2019-04-25T11:23:57.147Z,23.05
2019-04-25T11:26:26.946Z,23.37
2019-04-25T11:28:57.154Z,23.43
2019-04-25T11:31:33.538Z,23.50
2019-04-25T11:34:03.682Z,23.44
2019-04-25T11:36:34.139Z,23.42
2019-04-25T11:39:28.816Z,23.40
2019-04-25T11:41:58.368Z,23.23
2019-04-25T11:44:28.149Z,23.31
2019-04-25T11:46:58.790Z,23.33
2019-04-25T11:49:28.343Z,23.39
2019-04-25T11:51:58.183Z,23.63
2019-04-25T11:54:27.730Z,23.67
2019-04-25T11:56:57.363Z,23.40
2019-04-25T11:59:27.076Z,23.26
2019-04-25T12:01:57.372Z,23.25
2019-04-25T12:04:27.105Z,23.39
2019-04-25T12:06:56.677Z,23.39
2019-04-25T12:09:26.302Z,23.41
2019-04-25T12:11:56.056Z,23.33
2019-04-25T12:14:25.641Z,23.47
2019-04-25T12:16:56.255Z,23.80
2019-04-25T12:19:34.997Z,24.07
2019-04-25T12:21:58.213Z,23.81
2019-04-25T12:24:27.906Z,24.16
2019-04-25T12:26:57.514Z,24.25
2019-04-25T12:29:27.069Z,24.39
2019-04-25T12:31:56.562Z,24.38
2019-04-25T12:34:26.091Z,24.36
2019-04-25T12:36:55.751Z,24.37
2019-04-25T12:39:25.351Z,24.31
2019-04-25T12:41:56.055Z,24.09
2019-04-25T12:45:04.085Z,23.95
2019-04-25T12:47:35.159Z,23.98
2019-04-25T12:50:05.350Z,23.67
2019-04-25T12:52:34.950Z,23.58
2019-04-25T12:55:05.336Z,23.70
2019-04-25T12:57:34.836Z,23.89
2019-04-25T13:00:05.819Z,24.27
2019-04-25T13:02:36.510Z,24.56
2019-04-25T13:05:07.111Z,24.56
2019-04-25T13:07:37.182Z,24.61
2019-04-25T13:10:07.072Z,24.64
2019-04-25T13:12:36.583Z,24.75
2019-04-25T13:15:06.367Z,24.96
2019-04-25T13:17:37.364Z,24.95
2019-04-25T13:20:07.589Z,24.84
2019-04-25T13:22:37.314Z,24.71
2019-04-25T13:25:08.424Z,24.92
2019-04-25T13:27:47.609Z,25.05
2019-04-25T13:30:36.161Z,25.32
2019-04-25T13:36:23.361Z,25.56
2019-04-25T13:38:54.071Z,25.52
2019-04-25T13:41:25.476Z,25.31
2019-04-25T13:43:55.089Z,25.54
2019-04-25T13:46:27.259Z,25.39
2019-04-25T13:48:55.960Z,25.57
2019-04-25T13:51:26.190Z,25.72
2019-04-25T13:53:55.780Z,25.74
2019-04-25T13:56:26.535Z,25.83
2019-04-25T13:58:56.584Z,25.86
2019-04-25T14:01:26.124Z,26.01
2019-04-25T14:03:56.904Z,26.17
2019-04-25T14:06:26.485Z,26.32
2019-04-25T14:08:56.208Z,26.29
2019-04-25T14:11:26.012Z,26.23
2019-04-25T14:13:55.537Z,26.26
2019-04-25T14:16:54.589Z,26.39
2019-04-25T14:19:41.938Z,26.43
2019-04-25T14:22:21.020Z,26.45
2019-04-25T14:24:50.861Z,26.41
2019-04-25T14:27:24.027Z,26.39
2019-04-25T14:29:54.326Z,26.20
2019-04-25T14:32:26.163Z,26.06
2019-04-25T14:34:55.289Z,26.06
2019-04-25T14:37:29.252Z,26.07
2019-04-25T14:39:56.054Z,26.13
2019-04-25T14:42:26.446Z,26.13
2019-04-25T14:44:56.132Z,26.13
2019-04-25T14:47:25.668Z,26.02
2019-04-25T14:49:55.587Z,26.07
2019-04-25T14:52:25.945Z,26.04
2019-04-25T14:55:13.205Z,26.24
2019-04-25T14:57:42.901Z,26.35
2019-04-25T15:00:21.693Z,26.58
2019-04-25T15:02:54.251Z,26.61
2019-04-25T15:05:23.485Z,26.63
2019-04-25T15:07:52.963Z,26.51
2019-04-25T15:10:23.088Z,26.61
2019-04-25T15:12:52.678Z,26.38
2019-04-25T15:15:22.356Z,26.40
2019-04-25T15:17:52.973Z,26.13
2019-04-25T15:20:22.587Z,25.73
2019-04-25T15:22:52.124Z,25.73
2019-04-25T15:25:21.645Z,25.60
2019-04-25T15:27:51.175Z,25.75
2019-04-25T15:30:29.252Z,25.91
2019-04-25T15:32:57.841Z,26.01
2019-04-25T15:35:37.140Z,26.06
2019-04-25T15:38:12.365Z,26.14
2019-04-25T15:40:51.174Z,26.32
2019-04-25T15:43:31.416Z,26.36
2019-04-25T15:46:06.100Z,26.16
2019-04-25T15:48:35.646Z,26.19
2019-04-25T15:51:05.166Z,26.07
2019-04-25T15:53:35.004Z,26.27
2019-04-25T15:56:04.656Z,26.30
2019-04-25T15:58:34.171Z,26.49
2019-04-25T16:01:05.092Z,26.39
2019-04-25T16:03:35.217Z,26.24
2019-04-25T16:06:04.889Z,26.14
2019-04-25T16:08:35.110Z,25.91
2019-04-25T16:11:04.892Z,25.71
2019-04-25T16:13:34.508Z,25.57
2019-04-25T16:16:04.127Z,25.56
2019-04-25T16:18:33.636Z,25.56
2019-04-25T16:21:03.657Z,25.55
2019-04-25T16:23:34.286Z,25.62
2019-04-25T16:26:05.985Z,25.53
2019-04-25T16:28:36.069Z,25.51
2019-04-25T16:31:07.431Z,25.47
2019-04-25T16:33:37.762Z,25.56
2019-04-25T16:36:09.211Z,25.52
2019-04-25T16:38:39.045Z,25.42
2019-04-25T16:41:08.774Z,25.48
2019-04-25T16:43:41.569Z,25.34
2019-04-25T16:46:11.728Z,25.40
2019-04-25T16:48:41.262Z,25.27
2019-04-25T16:51:11.397Z,25.24
2019-04-25T16:53:41.007Z,25.06
2019-04-25T16:56:11.559Z,25.15
2019-04-25T16:58:41.148Z,25.20
2019-04-25T17:01:12.765Z,25.19
2019-04-25T17:03:43.133Z,25.07
2019-04-25T17:06:12.746Z,25.12
2019-04-25T17:08:42.276Z,25.14
2019-04-25T17:11:12.191Z,25.13
2019-04-25T17:13:47.908Z,25.14
2019-04-25T17:16:35.418Z,25.15
2019-04-25T17:19:11.273Z,25.07
2019-04-25T17:21:40.777Z,25.03
2019-04-25T17:24:10.325Z,25.07
2019-04-25T17:26:39.839Z,25.14
2019-04-25T17:29:13.523Z,25.05
2019-04-25T17:31:54.489Z,25.11
2019-04-25T17:34:31.788Z,25.01
2019-04-25T17:37:15.176Z,24.99
2019-04-25T17:39:49.310Z,24.98
2019-04-25T17:42:18.833Z,24.90
2019-04-25T17:44:48.336Z,24.78
2019-04-25T17:47:17.996Z,24.77
2019-04-25T17:49:47.511Z,24.80
2019-04-25T17:52:17.032Z,24.69
2019-04-25T17:54:47.319Z,24.71
2019-04-25T17:57:16.846Z,24.71
2019-04-25T17:59:46.369Z,24.73
2019-04-25T18:02:17.996Z,24.60
2019-04-25T18:04:47.958Z,24.56
2019-04-25T18:07:17.615Z,24.44
2019-04-25T18:09:47.212Z,24.55
2019-04-25T18:12:16.823Z,24.59
2019-04-25T18:14:46.448Z,24.46
2019-04-25T18:17:16.401Z,24.38
2019-04-25T18:19:50.959Z,24.35
2019-04-25T18:22:39.542Z,24.24
2019-04-25T18:25:34.439Z,24.08
2019-04-25T18:28:13.105Z,23.98
2019-04-25T18:30:43.367Z,23.88
2019-04-25T18:33:29.429Z,23.78
2019-04-25T18:36:05.317Z,23.66
2019-04-25T18:38:43.781Z,23.55
2019-04-25T18:41:18.873Z,23.54
2019-04-25T18:43:51.509Z,23.38
2019-04-25T18:46:26.062Z,23.27
2019-04-25T18:48:55.893Z,23.29
2019-04-25T18:51:25.499Z,23.09
2019-04-25T18:54:29.277Z,23.06
2019-04-25T18:57:06.621Z,23.03
2019-04-25T18:59:54.261Z,22.98
2019-04-25T19:02:49.091Z,22.94
2019-04-25T19:05:36.706Z,22.90
2019-04-25T19:08:06.391Z,22.77
2019-04-25T19:10:35.989Z,22.66
2019-04-25T19:13:12.576Z,22.57
2019-04-25T19:15:36.893Z,22.51
2019-04-25T19:18:06.519Z,22.40
2019-04-25T19:20:36.175Z,22.36
2019-04-25T19:23:05.758Z,22.29
2019-04-25T19:25:35.306Z,22.18
2019-04-25T19:28:06.199Z,22.19
2019-04-25T19:30:35.808Z,22.17
2019-04-25T19:33:07.582Z,22.11
2019-04-25T19:35:37.647Z,21.98
2019-04-25T19:38:07.637Z,21.97
2019-04-25T19:40:56.354Z,22.05
2019-04-25T19:43:45.001Z,21.98
2019-04-25T19:46:14.612Z,22.00
2019-04-25T19:48:44.894Z,21.95
2019-04-25T19:51:15.548Z,21.96
2019-04-25T19:53:45.119Z,21.84
2019-04-25T19:56:14.756Z,21.75
2019-04-25T19:58:44.297Z,21.69
2019-04-25T20:01:13.814Z,21.73
2019-04-25T20:03:54.988Z,21.71
2019-04-25T20:06:42.237Z,21.68
2019-04-25T20:09:34.700Z,21.71
2019-04-25T20:12:04.425Z,21.77
2019-04-25T20:14:33.971Z,21.80
2019-04-25T20:17:03.508Z,21.82
2019-04-25T20:19:33.133Z,21.74
2019-04-25T20:22:02.643Z,21.64
2019-04-25T20:24:33.160Z,21.66
2019-04-25T20:27:02.701Z,21.54
2019-04-25T20:29:32.400Z,21.45
2019-04-25T20:32:01.927Z,21.43
2019-04-25T20:34:31.456Z,21.37
2019-04-25T20:37:01.086Z,21.39
2019-04-25T20:39:30.600Z,21.49
2019-04-25T20:42:00.259Z,21.56
2019-04-25T20:44:29.807Z,21.66
2019-04-25T20:46:59.330Z,21.64
2019-04-25T20:49:28.876Z,21.56
2019-04-25T20:51:58.436Z,21.53
2019-04-25T20:54:29.059Z,21.52
2019-04-25T20:56:58.577Z,21.48
2019-04-25T20:59:28.095Z,21.40
2019-04-25T21:01:57.767Z,21.32
2019-04-25T21:04:39.401Z,21.28
2019-04-25T21:07:09.038Z,21.32
2019-04-25T21:09:39.020Z,21.28
2019-04-25T21:12:08.688Z,21.25
2019-04-25T21:14:53.495Z,21.24
2019-04-25T21:17:26.768Z,21.26
2019-04-25T21:19:57.082Z,21.15
2019-04-25T21:22:26.853Z,21.29
2019-04-25T21:24:56.380Z,20.63
2019-04-25T21:27:25.904Z,20.30
2019-04-25T21:29:55.633Z,20.53
2019-04-25T21:32:26.225Z,20.54
2019-04-25T21:34:56.892Z,20.70
2019-04-25T21:37:26.917Z,20.92
2019-04-25T21:40:02.897Z,21.10
2019-04-25T21:42:37.939Z,21.24
2019-04-25T21:45:07.735Z,21.16
2019-04-25T21:47:37.251Z,20.71
2019-04-25T21:50:07.402Z,20.17
2019-04-25T21:52:37.156Z,20.18
2019-04-25T21:55:07.045Z,19.75
2019-04-25T21:57:36.835Z,19.60
2019-04-25T22:00:10.006Z,19.50
2019-04-25T22:02:41.419Z,19.53
2019-04-25T22:05:11.695Z,19.41
2019-04-25T22:07:41.557Z,19.45
2019-04-25T22:10:11.327Z,19.24
2019-04-25T22:12:40.942Z,19.34
2019-04-25T22:15:13.292Z,19.44
2019-04-25T22:17:43.179Z,19.50
2019-04-25T22:20:12.951Z,19.53
2019-04-25T22:22:42.893Z,19.51
2019-04-25T22:25:12.491Z,19.69
2019-04-25T22:27:42.104Z,19.81
2019-04-25T22:30:13.336Z,19.86
2019-04-25T22:33:08.255Z,19.89
2019-04-25T22:35:53.702Z,19.87
2019-04-25T22:38:23.495Z,19.84
2019-04-25T22:40:53.028Z,19.81
2019-04-25T22:43:22.808Z,19.81
2019-04-25T22:45:52.598Z,19.73
2019-04-25T22:48:35.902Z,19.65
2019-04-25T22:51:05.851Z,19.57
2019-04-25T22:53:35.420Z,19.52
2019-04-25T22:56:05.321Z,19.49
2019-04-25T22:58:34.943Z,19.33
2019-04-25T23:01:07.076Z,19.33
2019-04-25T23:03:40.704Z,19.32
2019-04-25T23:06:10.226Z,19.36
2019-04-25T23:20:31.633Z,19.32
2019-04-25T23:23:01.146Z,19.21
2019-04-25T23:25:36.233Z,19.14
2019-04-25T23:28:16.348Z,19.15
2019-04-25T23:31:05.388Z,19.23
2019-04-25T23:33:36.388Z,19.29
2019-04-25T23:36:07.025Z,19.31
2019-04-25T23:38:36.613Z,19.31
2019-04-25T23:41:07.215Z,19.32
2019-04-25T23:43:36.812Z,19.38
2019-04-25T23:46:07.286Z,19.35
2019-04-25T23:48:37.558Z,19.36
2019-04-25T23:51:08.009Z,19.29
2019-04-25T23:53:38.481Z,19.23
2019-04-25T23:56:08.866Z,19.23
2019-04-25T23:58:38.646Z,19.23
